ADDS METAR Data INFO
IDs: Format: Raw Decoded Include TAF

Data at: 0600 UTC 25 Jun 2018

KPEZ 250555Z AUTO 16009G14KT 10SM CLR 26/23 A2991 RMK AO2 T02600230 10340 20260 403650251
KPEZ 250535Z AUTO 16008KT 10SM CLR 26/23 A2991 RMK AO2 T02620230
KPEZ 250515Z AUTO 15008G14KT 10SM SCT018 SCT022 27/23 A2991 RMK AO2 T02650230
KPEZ 250455Z AUTO 16010G14KT 10SM CLR 27/23 A2991 RMK AO2 T02650227
KPEZ 250435Z AUTO 15007G16KT 10SM CLR 27/23 A2989 RMK AO2 T02680225
KPEZ 250415Z AUTO 15009G16KT 10SM CLR 27/22 A2989 RMK AO2 T02710220
KPEZ 250355Z AUTO 15009G14KT 10SM CLR 27/22 A2988 RMK AO2 T02730217
KPEZ 250335Z AUTO 15012G17KT 10SM CLR 28/22 A2987 RMK AO2 T02780217
KPEZ 250315Z AUTO 16007KT 10SM CLR 28/21 A2986 RMK AO2 T02820211
KPEZ 250255Z AUTO 15008G16KT 10SM CLR 29/21 A2986 RMK AO2 T02870212
KPEZ 250235Z AUTO 16010G16KT 10SM CLR 29/21 A2985 RMK AO2 T02900207
KPEZ 250215Z AUTO 16010G15KT 10SM CLR 30/20 A2984 RMK AO2 T02950200
KPEZ 250155Z AUTO 15013G18KT 10SM CLR 30/20 A2984 RMK AO2 T03010200
KPEZ 250135Z AUTO 16012G19KT 10SM CLR 31/20 A2983 RMK AO2 T03090201
KPEZ 250115Z AUTO 15009G19KT 10SM CLR 32/20 A2983 RMK AO2 T03150199
KPEZ 250055Z AUTO 15013G19KT 10SM SCT045 32/20 A2982 RMK AO2 T03240200
KPEZ 250035Z AUTO 17010G19KT 10SM SCT047 33/20 A2982 RMK AO2 T03270199
KPEZ 250015Z AUTO 16013G17KT 10SM SCT047 33/20 A2981 RMK AO2 T03290201
KPEZ 242355Z AUTO 16012G17KT 10SM SCT049 34/20 A2981 RMK AO2 T03400195 10365 20338
KPEZ 242335Z AUTO 14010G15KT 10SM SCT049 34/20 A2981 RMK AO2 T03390197
KPEZ 242315Z AUTO 14011G17KT 10SM CLR 34/20 A2982 RMK AO2 T03410197
KPEZ 242255Z AUTO 15013G18KT 10SM SCT050 34/19 A2982 RMK AO2 T03430194
KPEZ 242235Z AUTO 15015G20KT 10SM BKN050 35/20 A2983 RMK AO2 T03520197
KPEZ 242215Z AUTO 14012G22KT 10SM BKN050 36/20 A2983 RMK AO2 T03590199
KPEZ 242155Z AUTO 15014G19KT 10SM SCT050 36/19 A2983 RMK AO2 T03600191
KPEZ 242135Z AUTO 13013G18KT 10SM BKN060 36/19 A2983 RMK AO2 T03630189
KPEZ 242115Z AUTO 14013G22KT 10SM SCT060 35/20 A2983 RMK AO2 T03510195
KPEZ 242055Z AUTO 15014G21KT 10SM SCT050 36/19 A2984 RMK AO2 T03570194
KPEZ 242035Z AUTO 16012G20KT 10SM SCT050 35/19 A2985 RMK AO2 T03510186
KPEZ 242015Z AUTO 15012G16KT 10SM SCT050 37/19 A2985 RMK AO2 T03650193
KPEZ 241955Z AUTO 14011G20KT 10SM SCT050 36/20 A2985 RMK AO2 T03550199
KPEZ 241935Z AUTO 16009G18KT 140V210 10SM BKN050 36/19 A2985 RMK AO2 T03590194
KPEZ 241915Z AUTO 19015G19KT 130V200 10SM SCT050 35/19 A2985 RMK AO2 T03510190
KPEZ 241855Z AUTO 18012G21KT 10SM SCT050 35/19 A2985 RMK AO2 T03510188
KPEZ 241835Z AUTO 15014G25KT 10SM SCT047 36/19 A2985 RMK AO2 T03550191
KPEZ 241815Z AUTO 14010G18KT 10SM SCT047 35/20 A2985 RMK AO2 T03470195
KPEZ 241755Z AUTO 14012G19KT 10SM SCT045 35/19 A2985 RMK AO2 T03450193 10345 20251
KPEZ 241735Z AUTO 17012G17KT 10SM SCT045 34/19 A2986 RMK AO2 T03370192
KPEZ 241715Z AUTO 17014G19KT 10SM CLR 34/20 A2985 RMK AO2 T03360196
KPEZ 241655Z AUTO 18010G18KT 140V200 10SM CLR 33/20 A2985 RMK AO2 T03300197
KPEZ 241635Z AUTO 19007KT 10SM CLR 33/20 A2985 RMK AO2 T03270203
KPEZ 241615Z AUTO 19008KT 10SM CLR 32/20 A2986 RMK AO2 T03170203
KPEZ 241555Z AUTO 17012G16KT 10SM CLR 32/21 A2985 RMK AO2 T03150206
KPEZ 241535Z AUTO 18013G19KT 10SM SCT030 31/20 A2986 RMK AO2 T03090204
KPEZ 241515Z AUTO 19010G16KT 10SM CLR 30/21 A2986 RMK AO2 T03010208
KPEZ 241455Z AUTO 20012G17KT 10SM SCT023 29/21 A2986 RMK AO2 T02940209
KPEZ 241435Z AUTO 18014G20KT 10SM SCT022 29/22 A2986 RMK AO2 T02900215
KPEZ 241415Z AUTO 19012KT 10SM SCT020 28/22 A2985 RMK AO2 T02770222
KPEZ 241355Z AUTO 18011G17KT 10SM CLR 28/22 A2985 RMK AO2 T02770223
KPEZ 241335Z AUTO 17011G18KT 10SM CLR 27/22 A2985 RMK AO2 T02730222
KPEZ 241315Z AUTO 17009G14KT 10SM CLR 27/23 A2986 RMK AO2 T02650225
KPEZ 241255Z AUTO 17006KT 10SM CLR 26/23 A2986 RMK AO2 T02600227
KPEZ 241235Z AUTO 17010KT 10SM CLR 25/23 A2985 RMK AO2 T02530231
KPEZ 241215Z AUTO 15004KT 10SM SCT025 25/23 A2987 RMK AO2 T02530230
KPEZ 241155Z AUTO 14003KT 10SM SCT025 25/23 A2987 RMK AO2 T02530230 10270 20252
KPEZ 241135Z AUTO 14003KT 10SM SCT027 26/23 A2986 RMK AO2 T02550230
KPEZ 241115Z AUTO 15003KT 10SM SCT027 26/23 A2986 RMK AO2 T02570230
KPEZ 241055Z AUTO 16004KT 10SM SCT025 26/23 A2986 RMK AO2 T02600230
KPEZ 241035Z AUTO 00000KT 10SM SCT021 SCT026 SCT033 26/23 A2986 RMK AO2 T02590229
KPEZ 241015Z AUTO 17004KT 10SM SCT024 BKN031 26/23 A2986 RMK AO2 T02620227
KPEZ 240955Z AUTO 16006KT 10SM BKN024 BKN031 26/23 A2986 RMK AO2 T02640228
KPEZ 240935Z AUTO 16006KT 10SM BKN022 BKN029 BKN034 27/23 A2986 RMK AO2 T02650229
KPEZ 240915Z AUTO 16006KT 10SM SCT020 BKN027 BKN033 27/23 A2986 RMK AO2 T02650230
KPEZ 240855Z AUTO 17007G16KT 10SM BKN018 OVC025 27/23 A2985 RMK AO2 T02660230
KPEZ 240835Z AUTO 15008KT 10SM BKN018 OVC024 27/23 A2986 RMK AO2 T02670231
KPEZ 240815Z AUTO 17009G15KT 10SM BKN020 OVC027 27/23 A2985 RMK AO2 T02670231
KPEZ 240755Z AUTO 16010G15KT 10SM BKN020 OVC029 27/23 A2985 RMK AO2 T02660233
KPEZ 240735Z AUTO 15010G14KT 10SM BKN018 OVC025 27/24 A2985 RMK AO2 T02650235
KPEZ 240715Z AUTO 15010G14KT 10SM OVC018 27/24 A2985 RMK AO2 T02650235
KPEZ 240655Z AUTO 15011G16KT 10SM OVC018 27/24 A2985 RMK AO2 T02660236
KPEZ 240635Z AUTO 17008G16KT 10SM BKN017 OVC023 27/24 A2985 RMK AO2 T02670237
KPEZ 240615Z AUTO 16009G17KT 10SM BKN015 OVC021 27/24 A2986 RMK AO2 T02700239
KPEZ 240555Z AUTO 17009KT 10SM OVC015 27/24 A2986 RMK AO2 T02700241 10353 20270 403700236
KPEZ 240535Z AUTO 15009G15KT 10SM OVC013 27/24 A2985 RMK AO2 T02710241
KPEZ 240515Z AUTO 15007KT 10SM OVC013 27/24 A2985 RMK AO2 T02710241
KPEZ 240455Z AUTO 15007KT 10SM OVC015 27/24 A2983 RMK AO2 T02720240
KPEZ 240435Z AUTO 15011G15KT 10SM BKN017 BKN022 27/24 A2981 RMK AO2 T02720238
KPEZ 240415Z AUTO 14011G16KT 10SM BKN019 28/24 A2980 RMK AO2 T02770239
KPEZ 240355Z AUTO 14010G17KT 10SM OVC019 28/24 A2979 RMK AO2 T02820243
KPEZ 240335Z AUTO 15013G19KT 10SM OVC019 29/25 A2978 RMK AO2 T02850245
KPEZ 240315Z AUTO 16011G19KT 10SM OVC019 29/24 A2978 RMK AO2 T02880244
KPEZ 240255Z AUTO 14013G17KT 10SM BKN021 29/24 A2977 RMK AO2 T02900244
KPEZ 240235Z AUTO 14010G20KT 10SM SCT021 29/24 A2976 RMK AO2 T02920244
KPEZ 240215Z AUTO 15011G19KT 10SM SCT026 30/24 A2975 RMK AO2 T02980242
KPEZ 240155Z AUTO 14014G20KT 10SM SCT028 31/24 A2975 RMK AO2 T03050242
KPEZ 240135Z AUTO 14011G21KT 10SM SCT030 31/24 A2975 RMK AO2 T03140240
KPEZ 240115Z AUTO 14012G19KT 10SM CLR 32/24 A2974 RMK AO2 T03230235
KPEZ 240055Z AUTO 14009G18KT 10SM SCT042 33/23 A2973 RMK AO2 T03310230
KPEZ 240035Z AUTO 15014G20KT 10SM SCT047 34/23 A2973 RMK AO2 T03420225
KPEZ 240015Z AUTO 16012G20KT 10SM CLR 35/21 A2973 RMK AO2 T03480211
KPEZ 232355Z AUTO 16012G20KT 10SM CLR 35/21 A2973 RMK AO2 T03540206 10370 20338
KPEZ 232335Z AUTO 17011G19KT 10SM CLR 36/21 A2973 RMK AO2 T03580206
KPEZ 232315Z AUTO 15011G20KT 10SM CLR 36/20 A2973 RMK AO2 T03620204
KPEZ 232255Z AUTO 17009G17KT 10SM CLR 37/20 A2973 RMK AO2 T03670198
KPEZ 232235Z AUTO 15010G19KT 10SM CLR 37/20 A2973 RMK AO2 T03660201
KPEZ 232215Z AUTO 14013G17KT 10SM CLR 37/20 A2974 RMK AO2 T03680201
KPEZ 232155Z AUTO 17010G17KT 10SM CLR 37/20 A2975 RMK AO2 T03660198
KPEZ 232135Z AUTO 15013G20KT 10SM CLR 36/20 A2975 RMK AO2 T03640199
KPEZ 232115Z AUTO 17014G20KT 10SM CLR 37/20 A2976 RMK AO2 T03670204
KPEZ 232055Z AUTO 18013G20KT 10SM SCT046 36/21 A2977 RMK AO2 T03600206
KPEZ 232035Z AUTO 14013G19KT 10SM SCT046 36/21 A2977 RMK AO2 T03550206
KPEZ 232015Z AUTO 18013G20KT 10SM SCT044 35/21 A2978 RMK AO2 T03520206
KPEZ 231955Z AUTO 17009G16KT 10SM SCT044 36/21 A2979 RMK AO2 T03570211
KPEZ 231935Z AUTO 16012G19KT 10SM CLR 35/21 A2980 RMK AO2 T03500211
KPEZ 231915Z AUTO 16014G17KT 10SM CLR 35/21 A2979 RMK AO2 T03490212
KPEZ 231855Z AUTO 18012G21KT 10SM CLR 35/21 A2980 RMK AO2 T03450211
KPEZ 231835Z AUTO 16009G18KT 10SM CLR 35/21 A2981 RMK AO2 T03470213
KPEZ 231815Z AUTO 16009KT 10SM CLR 34/21 A2982 RMK AO2 T03420212